createdAt,value
2019-04-22T00:01:16.140Z,3.80
2019-04-22T00:03:45.536Z,3.70
2019-04-22T00:06:30.726Z,3.70
2019-04-22T00:09:03.818Z,3.70
2019-04-22T00:14:00.731Z,3.60
2019-04-22T00:16:43.252Z,3.50
2019-04-22T00:19:15.438Z,3.50
2019-04-22T00:21:42.169Z,3.40
2019-04-22T00:24:05.891Z,3.40
2019-04-22T00:29:24.403Z,3.30
2019-04-22T00:31:49.406Z,3.30
2019-04-22T00:34:16.558Z,3.40
2019-04-22T00:36:52.007Z,3.30
2019-04-22T00:39:33.618Z,3.30
2019-04-22T00:41:50.526Z,3.30
2019-04-22T00:44:25.544Z,3.20
2019-04-22T00:46:52.592Z,3.20
2019-04-22T00:50:09.253Z,3.10
2019-04-22T00:52:01.117Z,3.10
2019-04-22T00:54:25.678Z,3.10
2019-04-22T00:56:50.232Z,3.00
2019-04-22T00:59:26.665Z,3.00
2019-04-22T01:01:54.041Z,3.00
2019-04-22T01:04:27.997Z,2.90
2019-04-22T01:06:54.131Z,2.90
2019-04-22T01:09:23.299Z,2.90
2019-04-22T01:11:56.306Z,2.80
2019-04-22T01:14:25.001Z,2.80
2019-04-22T01:16:53.785Z,2.80
2019-04-22T01:19:29.692Z,2.80
2019-04-22T01:21:50.765Z,2.70
2019-04-22T01:24:24.767Z,2.70
2019-04-22T01:26:49.250Z,2.70
2019-04-22T01:29:16.140Z,2.60
2019-04-22T01:31:39.906Z,2.70
2019-04-22T01:34:23.367Z,2.60
2019-04-22T01:36:57.622Z,2.60
2019-04-22T01:39:31.554Z,2.60
2019-04-22T01:44:40.570Z,2.70
2019-04-22T01:47:07.508Z,2.60
2019-04-22T01:49:33.366Z,2.60
2019-04-22T01:52:10.204Z,2.50
2019-04-22T01:54:41.573Z,2.50
2019-04-22T01:57:03.666Z,2.40
2019-04-22T01:59:31.743Z,2.40
2019-04-22T02:02:14.050Z,2.40
2019-04-22T02:07:12.483Z,2.30
2019-04-22T02:09:43.876Z,2.30
2019-04-22T02:12:17.689Z,2.20
2019-04-22T02:14:50.869Z,2.10
2019-04-22T02:17:17.641Z,2.20
2019-04-22T02:19:45.669Z,2.20
2019-04-22T02:22:07.266Z,2.10
2019-04-22T02:24:46.233Z,2.10
2019-04-22T02:27:20.198Z,2.00
2019-04-22T02:29:44.461Z,2.00
2019-04-22T02:32:27.604Z,2.00
2019-04-22T02:39:52.832Z,1.90
2019-04-22T02:42:14.235Z,1.90
2019-04-22T02:44:48.612Z,1.90
2019-04-22T02:49:47.531Z,1.80
2019-04-22T03:02:18.993Z,1.70
2019-04-22T03:04:43.735Z,1.60
2019-04-22T03:07:20.739Z,1.70
2019-04-22T03:09:47.930Z,1.60
2019-04-22T03:15:04.867Z,1.60
2019-04-22T03:17:25.177Z,1.60
2019-04-22T03:19:59.282Z,1.60
2019-04-22T03:25:06.137Z,1.60
2019-04-22T03:27:16.227Z,1.50
2019-04-22T03:30:43.651Z,1.50
2019-04-22T03:35:36.908Z,1.50
2019-04-22T03:37:49.457Z,1.50
2019-04-22T03:42:52.444Z,1.50
2019-04-22T03:47:48.062Z,1.40
2019-04-22T03:50:28.247Z,1.40
2019-04-22T03:52:38.702Z,1.40
2019-04-22T04:00:17.422Z,1.30
2019-04-22T04:05:26.354Z,1.30
2019-04-22T04:10:35.336Z,1.30
2019-04-22T04:12:49.390Z,1.30
2019-04-22T04:15:19.010Z,1.20
2019-04-22T04:17:51.861Z,1.20
2019-04-22T04:20:24.347Z,1.20
2019-04-22T04:25:29.670Z,1.10
2019-04-22T04:30:23.660Z,1.10
2019-04-22T04:45:33.762Z,1.20
2019-04-22T04:55:26.699Z,1.20
2019-04-22T04:58:22.096Z,1.30
2019-04-22T05:02:53.256Z,1.40
2019-04-22T05:05:28.818Z,1.50
2019-04-22T05:10:39.172Z,1.60
2019-04-22T05:18:06.067Z,1.90
2019-04-22T05:20:32.005Z,2.00
2019-04-22T05:22:44.555Z,2.10
2019-04-22T05:25:19.316Z,2.10
2019-04-22T05:27:46.835Z,2.20
2019-04-22T05:35:23.006Z,2.60
2019-04-22T05:37:50.626Z,2.80
2019-04-22T05:42:54.027Z,3.00
2019-04-22T05:47:52.402Z,3.40
2019-04-22T05:50:18.719Z,3.60
2019-04-22T05:52:57.071Z,3.80
2019-04-22T05:55:32.380Z,4.10
2019-04-22T05:57:59.067Z,4.40
2019-04-22T06:03:12.255Z,4.90
2019-04-22T06:08:02.494Z,5.60
2019-04-22T06:13:00.883Z,6.30
2019-04-22T06:15:36.205Z,6.80
2019-04-22T06:20:51.824Z,7.60
2019-04-22T06:25:57.807Z,8.40
2019-04-22T06:28:23.526Z,8.80
2019-04-22T06:30:54.604Z,9.30
2019-04-22T06:33:15.183Z,9.60
2019-04-22T06:38:30.466Z,9.90
2019-04-22T06:40:54.271Z,10.00
2019-04-22T06:43:20.090Z,10.20
2019-04-22T06:45:46.365Z,10.40
2019-04-22T06:50:48.894Z,10.90
2019-04-22T06:53:16.808Z,11.10
2019-04-22T06:55:55.013Z,11.30
2019-04-22T06:58:34.683Z,11.80
2019-04-22T07:00:49.413Z,12.30
2019-04-22T07:03:34.831Z,12.60
2019-04-22T07:05:53.907Z,13.30
2019-04-22T07:10:50.638Z,13.80
2019-04-22T07:13:23.640Z,14.20
2019-04-22T07:16:05.241Z,14.60
2019-04-22T07:20:57.858Z,15.10
2019-04-22T07:25:56.546Z,15.80
2019-04-22T07:28:20.557Z,16.40
2019-04-22T07:30:53.420Z,16.70
2019-04-22T07:33:28.401Z,17.00
2019-04-22T07:36:06.485Z,17.30
2019-04-22T07:45:56.899Z,17.90
2019-04-22T07:48:33.956Z,18.00
2019-04-22T07:53:21.660Z,18.30
2019-04-22T07:55:58.052Z,18.30
2019-04-22T07:58:34.084Z,18.50
2019-04-22T08:01:02.007Z,18.70
2019-04-22T08:03:51.504Z,19.00
2019-04-22T08:06:08.723Z,18.80
2019-04-22T08:11:35.142Z,19.00
2019-04-22T08:13:32.657Z,19.40
2019-04-22T08:15:58.722Z,19.40
2019-04-22T08:21:00.107Z,19.20
2019-04-22T08:23:33.935Z,19.30
2019-04-22T08:26:09.895Z,19.20
2019-04-22T08:28:36.714Z,19.50
2019-04-22T08:30:59.673Z,19.80
2019-04-22T08:38:37.722Z,19.90
2019-04-22T08:41:22.975Z,20.30
2019-04-22T08:43:56.130Z,20.30
2019-04-22T08:46:24.109Z,19.90
2019-04-22T08:48:49.613Z,20.00
2019-04-22T08:51:22.172Z,20.10
2019-04-22T08:53:58.906Z,20.20
2019-04-22T08:56:29.347Z,20.60
2019-04-22T08:59:02.029Z,20.80
2019-04-22T09:01:22.791Z,21.00
2019-04-22T09:03:52.780Z,20.90
2019-04-22T09:06:35.445Z,21.10
2019-04-22T09:08:54.118Z,21.00
2019-04-22T09:11:33.810Z,21.10
2019-04-22T09:16:28.514Z,21.60
2019-04-22T09:18:54.547Z,21.70
2019-04-22T09:21:31.890Z,22.20
2019-04-22T09:26:25.480Z,22.60
2019-04-22T09:31:19.883Z,22.20
2019-04-22T09:33:49.093Z,22.00
2019-04-22T09:36:28.816Z,22.00
2019-04-22T09:38:49.188Z,21.90
2019-04-22T09:41:27.204Z,21.90
2019-04-22T09:46:32.970Z,22.30
2019-04-22T09:49:01.159Z,22.70
2019-04-22T09:51:27.252Z,22.50
2019-04-22T09:54:00.789Z,22.80
2019-04-22T09:56:23.842Z,23.60
2019-04-22T09:58:58.981Z,23.50
2019-04-22T10:04:00.847Z,23.60
2019-04-22T10:09:12.681Z,24.00
2019-04-22T10:16:31.576Z,23.00
2019-04-22T10:18:59.273Z,23.20
2019-04-22T10:21:35.317Z,23.50
2019-04-22T10:24:00.219Z,23.80
2019-04-22T10:26:31.732Z,23.90
2019-04-22T10:29:00.501Z,24.30
2019-04-22T10:31:34.457Z,24.20
2019-04-22T10:33:49.570Z,24.10
2019-04-22T10:36:05.839Z,23.80
2019-04-22T10:38:34.730Z,23.30
2019-04-22T10:41:04.760Z,23.50
2019-04-22T10:43:34.842Z,23.50
2019-04-22T10:46:04.149Z,23.40
2019-04-22T10:48:32.825Z,23.50
2019-04-22T10:51:01.255Z,23.60
2019-04-22T10:53:31.144Z,23.40
2019-04-22T10:56:00.944Z,23.70
2019-04-22T10:58:30.808Z,23.40
2019-04-22T11:01:00.196Z,23.50
2019-04-22T11:03:28.958Z,23.40
2019-04-22T11:05:59.121Z,23.80
2019-04-22T11:08:35.022Z,23.80
2019-04-22T11:11:12.703Z,24.00
2019-04-22T11:13:28.425Z,23.80
2019-04-22T11:15:58.537Z,23.90
2019-04-22T11:18:27.389Z,24.40
2019-04-22T11:20:57.832Z,24.40
2019-04-22T11:23:27.044Z,24.50
2019-04-22T11:25:57.529Z,24.50
2019-04-22T11:28:27.599Z,24.50
2019-04-22T11:30:58.658Z,24.60
2019-04-22T11:33:27.286Z,24.30
2019-04-22T11:35:55.783Z,24.00
2019-04-22T11:38:24.697Z,23.70
2019-04-22T11:40:55.492Z,24.30
2019-04-22T11:43:24.090Z,24.20
2019-04-22T11:45:53.369Z,24.60
2019-04-22T11:48:23.517Z,25.10
2019-04-22T11:50:53.625Z,25.00
2019-04-22T11:53:22.756Z,25.20
2019-04-22T11:55:51.263Z,25.10
2019-04-22T11:58:21.065Z,24.70
2019-04-22T12:00:51.507Z,24.70
2019-04-22T12:03:21.035Z,25.40
2019-04-22T12:05:49.998Z,25.00
2019-04-22T12:08:18.609Z,25.40
2019-04-22T12:10:53.190Z,25.20
2019-04-22T12:13:17.840Z,25.30
2019-04-22T12:15:46.831Z,25.50
2019-04-22T12:18:15.485Z,25.20
2019-04-22T12:20:45.393Z,25.30
2019-04-22T12:23:14.797Z,25.50
2019-04-22T12:25:52.307Z,25.40
2019-04-22T12:28:15.420Z,25.20
2019-04-22T12:30:43.978Z,24.80
2019-04-22T12:33:14.579Z,24.90
2019-04-22T12:35:42.586Z,25.00
2019-04-22T12:38:13.156Z,25.00
2019-04-22T12:40:49.374Z,24.90
2019-04-22T12:43:14.055Z,24.70
2019-04-22T12:45:42.520Z,24.70
2019-04-22T12:48:12.725Z,24.70
2019-04-22T12:50:43.946Z,24.90
2019-04-22T12:53:16.730Z,24.70
2019-04-22T12:55:42.068Z,24.70
2019-04-22T12:58:11.858Z,25.40
2019-04-22T13:00:40.834Z,25.80
2019-04-22T13:03:10.967Z,26.00
2019-04-22T13:05:40.993Z,25.80
2019-04-22T13:08:09.797Z,25.70
2019-04-22T13:10:45.401Z,25.90
2019-04-22T13:13:11.291Z,25.40
2019-04-22T13:15:41.206Z,25.50
2019-04-22T13:18:19.195Z,25.40
2019-04-22T13:20:40.166Z,24.70
2019-04-22T13:23:11.580Z,24.50
2019-04-22T13:25:40.934Z,24.40
2019-04-22T13:28:11.230Z,24.00
2019-04-22T13:30:40.883Z,23.90
2019-04-22T13:33:10.648Z,23.80
2019-04-22T13:35:39.487Z,23.20
2019-04-22T13:38:09.057Z,23.60
2019-04-22T13:40:38.826Z,23.80
2019-04-22T13:43:09.066Z,23.70
2019-04-22T13:45:38.609Z,23.70
2019-04-22T13:48:24.092Z,23.40
2019-04-22T13:51:03.765Z,23.50
2019-04-22T13:53:48.097Z,23.40
2019-04-22T13:58:18.446Z,23.40
2019-04-22T14:00:38.532Z,23.50
2019-04-22T14:03:18.365Z,23.80
2019-04-22T14:05:48.826Z,23.90
2019-04-22T14:08:18.468Z,24.10
2019-04-22T14:10:48.402Z,24.20
2019-04-22T14:13:17.088Z,24.40
2019-04-22T14:15:46.755Z,24.20
2019-04-22T14:18:16.815Z,24.20
2019-04-22T14:20:46.862Z,24.00
2019-04-22T14:23:16.009Z,23.90
2019-04-22T14:25:46.381Z,24.00
2019-04-22T14:28:17.538Z,23.90
2019-04-22T14:30:46.433Z,23.50
2019-04-22T14:33:16.093Z,23.20
2019-04-22T14:35:45.798Z,23.20
2019-04-22T14:38:14.419Z,23.50
2019-04-22T14:40:45.324Z,23.40
2019-04-22T14:43:46.295Z,23.20
2019-04-22T14:46:17.848Z,23.30
2019-04-22T14:48:41.972Z,23.40
2019-04-22T14:51:07.109Z,23.30
2019-04-22T14:53:35.206Z,23.30
2019-04-22T14:55:46.479Z,23.00
2019-04-22T14:58:15.203Z,23.10
2019-04-22T15:00:44.292Z,23.00
2019-04-22T15:03:15.470Z,23.00
2019-04-22T15:05:44.331Z,23.00
2019-04-22T15:08:13.170Z,22.90
2019-04-22T15:10:42.302Z,23.00
2019-04-22T15:13:11.570Z,22.80
2019-04-22T15:15:56.827Z,22.80
2019-04-22T15:18:28.560Z,22.70
2019-04-22T15:20:58.679Z,22.60
2019-04-22T15:23:28.558Z,22.60
2019-04-22T15:25:57.177Z,22.50
2019-04-22T15:28:27.104Z,22.50
2019-04-22T15:30:55.718Z,22.30
2019-04-22T15:33:25.478Z,22.20
2019-04-22T15:35:55.546Z,22.20
2019-04-22T15:38:24.424Z,22.10
2019-04-22T15:40:54.590Z,22.00
2019-04-22T15:43:28.920Z,21.80
2019-04-22T15:45:54.957Z,21.80
2019-04-22T15:48:25.061Z,21.70
2019-04-22T15:50:54.977Z,21.60
2019-04-22T15:53:23.577Z,21.50
2019-04-22T15:55:52.435Z,21.50
2019-04-22T15:58:21.786Z,21.40
2019-04-22T16:01:01.595Z,21.30
2019-04-22T16:03:20.586Z,21.30
2019-04-22T16:05:50.294Z,21.20
2019-04-22T16:08:19.217Z,21.10
2019-04-22T16:10:48.163Z,21.00
2019-04-22T16:13:24.275Z,21.00
2019-04-22T16:15:48.998Z,21.10
2019-04-22T16:18:18.203Z,21.00
2019-04-22T16:20:48.213Z,20.90
2019-04-22T16:23:34.108Z,20.90
2019-04-22T16:26:22.476Z,20.90
2019-04-22T16:28:54.501Z,20.90
2019-04-22T16:31:22.337Z,20.80
2019-04-22T16:33:52.371Z,20.70
2019-04-22T16:36:22.665Z,20.60
2019-04-22T16:38:51.384Z,20.60
2019-04-22T16:41:21.028Z,20.60
2019-04-22T16:43:50.799Z,20.60
2019-04-22T16:46:19.499Z,20.60
2019-04-22T16:48:49.574Z,20.50
2019-04-22T16:51:18.472Z,20.40
2019-04-22T16:53:47.516Z,20.40
2019-04-22T16:56:17.085Z,20.30
2019-04-22T16:58:46.533Z,20.20
2019-04-22T17:01:32.666Z,20.10
2019-04-22T17:04:12.314Z,20.10
2019-04-22T17:06:43.572Z,20.00
2019-04-22T17:09:15.580Z,20.00
2019-04-22T17:11:43.749Z,19.90
2019-04-22T17:14:13.428Z,19.90
2019-04-22T17:16:42.491Z,19.70
2019-04-22T17:19:11.205Z,19.60
2019-04-22T17:21:39.803Z,19.50
2019-04-22T17:24:09.790Z,19.40
2019-04-22T17:26:39.031Z,19.30
2019-04-22T17:29:08.473Z,19.40
2019-04-22T17:31:40.863Z,19.30
2019-04-22T17:34:07.473Z,19.30
2019-04-22T17:36:36.229Z,19.20
2019-04-22T17:39:22.857Z,19.10
2019-04-22T17:41:56.814Z,19.10
2019-04-22T17:44:40.002Z,19.00
2019-04-22T17:46:56.376Z,19.00
2019-04-22T17:49:45.659Z,19.00
2019-04-22T17:54:50.131Z,18.80
2019-04-22T17:57:21.759Z,18.70
2019-04-22T18:02:22.600Z,18.60
2019-04-22T18:04:40.073Z,18.50
2019-04-22T18:07:31.173Z,18.40
2019-04-22T18:10:21.027Z,18.20
2019-04-22T18:12:33.591Z,18.20
2019-04-22T18:14:59.626Z,18.10
2019-04-22T18:17:32.276Z,18.10
2019-04-22T18:19:51.724Z,18.00
2019-04-22T18:22:19.975Z,17.80
2019-04-22T18:24:51.631Z,17.80
2019-04-22T18:27:38.898Z,17.80
2019-04-22T18:29:54.585Z,17.70
2019-04-22T18:32:15.392Z,17.60
2019-04-22T18:34:49.218Z,17.60
2019-04-22T18:37:21.047Z,17.50
2019-04-22T18:39:59.000Z,17.50
2019-04-22T18:42:24.402Z,17.40
2019-04-22T18:45:06.622Z,17.30
2019-04-22T18:47:25.378Z,17.10
2019-04-22T18:49:53.078Z,17.00
2019-04-22T18:52:48.924Z,16.80
2019-04-22T18:55:17.677Z,16.80
2019-04-22T18:58:04.231Z,16.70
2019-04-22T19:00:36.360Z,16.70
2019-04-22T19:03:15.333Z,16.80
2019-04-22T19:06:00.987Z,16.70
2019-04-22T19:08:30.435Z,16.70
2019-04-22T19:16:17.105Z,16.60
2019-04-22T19:18:37.949Z,16.60
2019-04-22T19:21:07.874Z,16.50
2019-04-22T19:23:31.894Z,16.40
2019-04-22T19:25:59.598Z,16.20
2019-04-22T19:28:36.084Z,16.00
2019-04-22T19:31:09.344Z,15.90
2019-04-22T19:33:38.149Z,15.90
2019-04-22T19:36:05.001Z,15.90
2019-04-22T19:38:25.640Z,15.90
2019-04-22T19:41:14.549Z,15.80
2019-04-22T19:43:33.122Z,15.90
2019-04-22T19:46:01.960Z,15.80
2019-04-22T19:48:39.052Z,15.80
2019-04-22T19:51:11.099Z,15.80
2019-04-22T19:53:40.740Z,15.80
2019-04-22T19:56:02.519Z,15.70
2019-04-22T19:58:34.953Z,15.70
2019-04-22T20:01:22.158Z,15.70
2019-04-22T20:04:12.545Z,15.60
2019-04-22T20:06:38.143Z,15.60
2019-04-22T20:09:05.802Z,15.50
2019-04-22T20:11:41.757Z,15.40
2019-04-22T20:14:06.278Z,15.40
2019-04-22T20:16:34.223Z,15.40
2019-04-22T20:19:12.093Z,15.30
2019-04-22T20:21:40.518Z,15.30
2019-04-22T20:23:55.981Z,15.20
2019-04-22T20:26:44.142Z,15.30
2019-04-22T20:29:17.287Z,15.30
2019-04-22T20:31:46.701Z,15.30
2019-04-22T20:34:14.440Z,15.20
2019-04-22T20:36:57.004Z,15.00
2019-04-22T20:39:07.833Z,15.10
2019-04-22T20:41:39.989Z,15.00
2019-04-22T20:44:16.363Z,14.90
2019-04-22T20:46:42.176Z,14.90
2019-04-22T20:49:12.024Z,14.90
2019-04-22T20:51:52.873Z,14.80
2019-04-22T20:54:12.124Z,14.80
2019-04-22T20:56:36.929Z,14.90
2019-04-22T20:59:14.982Z,14.80
2019-04-22T21:01:45.896Z,14.80
2019-04-22T21:03:59.137Z,14.80
2019-04-22T21:06:44.516Z,14.80
2019-04-22T21:09:18.062Z,14.80
2019-04-22T21:11:40.316Z,14.70
2019-04-22T21:14:12.135Z,14.60
2019-04-22T21:16:44.463Z,14.60
2019-04-22T21:19:21.965Z,14.50
2019-04-22T21:21:46.381Z,14.50
2019-04-22T21:24:09.364Z,14.50
2019-04-22T21:26:44.040Z,14.50
2019-04-22T21:29:13.335Z,14.40
2019-04-22T21:31:47.798Z,14.50
2019-04-22T21:34:10.156Z,14.50
2019-04-22T21:36:51.131Z,14.40
2019-04-22T21:39:15.585Z,14.40
2019-04-22T21:41:46.433Z,14.30
2019-04-22T21:44:16.584Z,14.20
2019-04-22T21:46:51.340Z,14.10
2019-04-22T21:49:21.715Z,14.20
2019-04-22T21:51:49.621Z,14.20
2019-04-22T21:54:23.862Z,14.20
2019-04-22T21:57:13.715Z,14.20
2019-04-22T21:59:34.345Z,14.20
2019-04-22T22:02:09.904Z,14.10
2019-04-22T22:04:35.645Z,14.00
2019-04-22T22:06:58.908Z,13.90
2019-04-22T22:09:37.899Z,13.90
2019-04-22T22:12:08.091Z,13.80
2019-04-22T22:14:40.357Z,13.70
2019-04-22T22:17:01.333Z,13.60
2019-04-22T22:19:39.696Z,13.60
2019-04-22T22:22:30.102Z,13.50
2019-04-22T22:24:46.680Z,13.50
2019-04-22T22:27:14.517Z,13.50
2019-04-22T22:32:16.580Z,13.30
2019-04-22T22:34:38.903Z,13.30
2019-04-22T22:37:05.238Z,13.30
2019-04-22T22:39:35.777Z,13.30
2019-04-22T22:41:52.138Z,13.20
2019-04-22T22:44:28.304Z,13.10
2019-04-22T22:47:08.678Z,13.20
2019-04-22T22:49:41.055Z,13.10
2019-04-22T22:52:38.128Z,13.10
2019-04-22T22:54:38.918Z,13.10
2019-04-22T22:59:43.018Z,12.90
2019-04-22T23:02:14.262Z,12.90
2019-04-22T23:04:48.758Z,12.90
2019-04-22T23:07:17.160Z,12.90
2019-04-22T23:09:47.366Z,12.90
2019-04-22T23:12:24.783Z,12.90
2019-04-22T23:14:44.777Z,12.90
2019-04-22T23:17:01.197Z,12.80
2019-04-22T23:19:24.006Z,12.70
2019-04-22T23:21:57.895Z,12.60
2019-04-22T23:24:50.229Z,12.60
2019-04-22T23:27:40.416Z,12.60
2019-04-22T23:30:15.874Z,12.60
2019-04-22T23:32:56.468Z,12.60
2019-04-22T23:35:29.333Z,12.50
2019-04-22T23:37:58.699Z,12.50
2019-04-22T23:40:34.392Z,12.50
2019-04-22T23:43:11.107Z,12.50
2019-04-22T23:45:44.863Z,12.40
2019-04-22T23:48:12.840Z,12.50
2019-04-22T23:50:50.932Z,12.40
2019-04-22T23:53:45.091Z,12.40
2019-04-22T23:55:54.310Z,12.30
2019-04-22T23:58:45.551Z,12.40
